sensor_id;sensor_type;location;lat;lon;timestamp;pressure;altitude;pressure_sealevel;temperature
9119;BMP180;4594;50.994;7.126;2022-11-15T00:00:56;100082.00;;;15.70
9119;BMP180;4594;50.994;7.126;2022-11-15T00:03:26;100076.00;;;15.70
9119;BMP180;4594;50.994;7.126;2022-11-15T00:05:52;100074.00;;;15.70
9119;BMP180;4594;50.994;7.126;2022-11-15T00:08:18;100082.00;;;15.80
9119;BMP180;4594;50.994;7.126;2022-11-15T00:10:58;100056.00;;;15.80
9119;BMP180;4594;50.994;7.126;2022-11-15T00:13:24;100067.00;;;15.90
9119;BMP180;4594;50.994;7.126;2022-11-15T00:15:50;100062.00;;;15.90
9119;BMP180;4594;50.994;7.126;2022-11-15T00:18:16;100070.00;;;15.90
9119;BMP180;4594;50.994;7.126;2022-11-15T00:20:42;100060.00;;;16.00
9119;BMP180;4594;50.994;7.126;2022-11-15T00:23:09;100065.00;;;16.00
9119;BMP180;4594;50.994;7.126;2022-11-15T00:25:35;100051.00;;;16.10
9119;BMP180;4594;50.994;7.126;2022-11-15T00:28:01;100065.00;;;16.10
9119;BMP180;4594;50.994;7.126;2022-11-15T00:30:28;100070.00;;;16.10
9119;BMP180;4594;50.994;7.126;2022-11-15T00:32:53;100058.00;;;16.20
9119;BMP180;4594;50.994;7.126;2022-11-15T00:35:19;100080.00;;;16.20
9119;BMP180;4594;50.994;7.126;2022-11-15T00:37:46;100069.00;;;16.30
9119;BMP180;4594;50.994;7.126;2022-11-15T00:40:13;100055.00;;;16.40
9119;BMP180;4594;50.994;7.126;2022-11-15T00:42:40;100064.00;;;16.40
9119;BMP180;4594;50.994;7.126;2022-11-15T00:45:06;100060.00;;;16.50
9119;BMP180;4594;50.994;7.126;2022-11-15T00:47:32;100064.00;;;16.50
9119;BMP180;4594;50.994;7.126;2022-11-15T00:49:57;100059.00;;;16.60
9119;BMP180;4594;50.994;7.126;2022-11-15T00:52:23;100063.00;;;16.60
9119;BMP180;4594;50.994;7.126;2022-11-15T00:54:49;100057.00;;;16.70
9119;BMP180;4594;50.994;7.126;2022-11-15T00:57:14;100043.00;;;16.70
9119;BMP180;4594;50.994;7.126;2022-11-15T00:59:40;100057.00;;;16.80
9119;BMP180;4594;50.994;7.126;2022-11-15T01:02:06;100041.00;;;16.80
9119;BMP180;4594;50.994;7.126;2022-11-15T01:04:31;100059.00;;;16.90
9119;BMP180;4594;50.994;7.126;2022-11-15T01:06:57;100045.00;;;16.90
9119;BMP180;4594;50.994;7.126;2022-11-15T01:09:23;100050.00;;;17.00
9119;BMP180;4594;50.994;7.126;2022-11-15T01:11:48;100051.00;;;17.00
9119;BMP180;4594;50.994;7.126;2022-11-15T01:14:14;100036.00;;;17.00
9119;BMP180;4594;50.994;7.126;2022-11-15T01:16:40;100041.00;;;17.10
9119;BMP180;4594;50.994;7.126;2022-11-15T01:19:06;100027.00;;;17.10
9119;BMP180;4594;50.994;7.126;2022-11-15T01:21:31;100025.00;;;17.10
9119;BMP180;4594;50.994;7.126;2022-11-15T01:23:57;100038.00;;;17.10
9119;BMP180;4594;50.994;7.126;2022-11-15T01:26:24;100023.00;;;17.20
9119;BMP180;4594;50.994;7.126;2022-11-15T01:28:50;100038.00;;;17.20
9119;BMP180;4594;50.994;7.126;2022-11-15T01:31:21;100023.00;;;17.20
9119;BMP180;4594;50.994;7.126;2022-11-15T01:33:48;100040.00;;;17.20
9119;BMP180;4594;50.994;7.126;2022-11-15T01:36:20;100040.00;;;17.30
9119;BMP180;4594;50.994;7.126;2022-11-15T01:38:59;100032.00;;;17.30
9119;BMP180;4594;50.994;7.126;2022-11-15T01:41:33;100032.00;;;17.30
9119;BMP180;4594;50.994;7.126;2022-11-15T01:44:49;100035.00;;;17.40
9119;BMP180;4594;50.994;7.126;2022-11-15T01:47:40;100036.00;;;17.40
9119;BMP180;4594;50.994;7.126;2022-11-15T01:50:17;100028.00;;;17.50
9119;BMP180;4594;50.994;7.126;2022-11-15T01:52:46;100030.00;;;17.50
9119;BMP180;4594;50.994;7.126;2022-11-15T01:55:21;100014.00;;;17.50
9119;BMP180;4594;50.994;7.126;2022-11-15T01:57:53;100017.00;;;17.60
9119;BMP180;4594;50.994;7.126;2022-11-15T02:00:20;99995.00;;;17.60
9119;BMP180;4594;50.994;7.126;2022-11-15T02:02:45;100014.00;;;17.70
9119;BMP180;4594;50.994;7.126;2022-11-15T02:05:11;100002.00;;;17.70
9119;BMP180;4594;50.994;7.126;2022-11-15T02:07:37;99999.00;;;17.70
9119;BMP180;4594;50.994;7.126;2022-11-15T02:10:18;100006.00;;;17.70
9119;BMP180;4594;50.994;7.126;2022-11-15T02:12:46;100002.00;;;17.70
9119;BMP180;4594;50.994;7.126;2022-11-15T02:15:13;99997.00;;;17.70
9119;BMP180;4594;50.994;7.126;2022-11-15T02:32:18;99966.00;;;17.90
9119;BMP180;4594;50.994;7.126;2022-11-15T02:35:16;99964.00;;;17.90
9119;BMP180;4594;50.994;7.126;2022-11-15T02:37:58;99978.00;;;17.90
9119;BMP180;4594;50.994;7.126;2022-11-15T02:40:50;99975.00;;;17.90
9119;BMP180;4594;50.994;7.126;2022-11-15T02:49:18;99949.00;;;17.90
9119;BMP180;4594;50.994;7.126;2022-11-15T02:51:47;99966.00;;;18.00
9119;BMP180;4594;50.994;7.126;2022-11-15T02:54:28;99948.00;;;18.00
9119;BMP180;4594;50.994;7.126;2022-11-15T02:57:01;99964.00;;;18.00
9119;BMP180;4594;50.994;7.126;2022-11-15T03:08:05;99950.00;;;18.00
9119;BMP180;4594;50.994;7.126;2022-11-15T03:14:13;99938.00;;;18.00
9119;BMP180;4594;50.994;7.126;2022-11-15T03:16:59;99952.00;;;18.00
9119;BMP180;4594;50.994;7.126;2022-11-15T03:22:15;99954.00;;;18.10
9119;BMP180;4594;50.994;7.126;2022-11-15T03:24:45;99949.00;;;18.10
9119;BMP180;4594;50.994;7.126;2022-11-15T03:27:17;99956.00;;;18.10
9119;BMP180;4594;50.994;7.126;2022-11-15T03:29:59;99955.00;;;18.10
9119;BMP180;4594;50.994;7.126;2022-11-15T03:32:29;99950.00;;;18.00
9119;BMP180;4594;50.994;7.126;2022-11-15T03:35:09;99953.00;;;18.10
9119;BMP180;4594;50.994;7.126;2022-11-15T03:38:21;99951.00;;;18.00
9119;BMP180;4594;50.994;7.126;2022-11-15T03:41:01;99949.00;;;18.00
9119;BMP180;4594;50.994;7.126;2022-11-15T03:43:54;99932.00;;;18.00
9119;BMP180;4594;50.994;7.126;2022-11-15T03:46:56;99937.00;;;18.00
9119;BMP180;4594;50.994;7.126;2022-11-15T03:49:34;99944.00;;;18.00
9119;BMP180;4594;50.994;7.126;2022-11-15T03:52:02;99942.00;;;18.00
9119;BMP180;4594;50.994;7.126;2022-11-15T03:54:29;99932.00;;;18.00
9119;BMP180;4594;50.994;7.126;2022-11-15T03:56:55;99942.00;;;18.00
9119;BMP180;4594;50.994;7.126;2022-11-15T03:59:21;99933.00;;;18.10
9119;BMP180;4594;50.994;7.126;2022-11-15T04:01:47;99921.00;;;18.10
9119;BMP180;4594;50.994;7.126;2022-11-15T04:04:13;99923.00;;;18.10
9119;BMP180;4594;50.994;7.126;2022-11-15T04:06:38;99938.00;;;18.10
9119;BMP180;4594;50.994;7.126;2022-11-15T04:09:04;99947.00;;;18.10
9119;BMP180;4594;50.994;7.126;2022-11-15T04:11:30;99946.00;;;18.10
9119;BMP180;4594;50.994;7.126;2022-11-15T04:13:56;99943.00;;;18.10
9119;BMP180;4594;50.994;7.126;2022-11-15T04:16:21;99933.00;;;18.10
9119;BMP180;4594;50.994;7.126;2022-11-15T04:18:47;99931.00;;;18.10
9119;BMP180;4594;50.994;7.126;2022-11-15T04:21:35;99935.00;;;18.10
9119;BMP180;4594;50.994;7.126;2022-11-15T04:24:20;99939.00;;;18.10
9119;BMP180;4594;50.994;7.126;2022-11-15T04:26:45;99937.00;;;18.10
9119;BMP180;4594;50.994;7.126;2022-11-15T04:29:11;99935.00;;;18.20
9119;BMP180;4594;50.994;7.126;2022-11-15T04:31:55;99924.00;;;18.20
9119;BMP180;4594;50.994;7.126;2022-11-15T04:34:21;99927.00;;;18.20
9119;BMP180;4594;50.994;7.126;2022-11-15T04:36:47;99921.00;;;18.20
9119;BMP180;4594;50.994;7.126;2022-11-15T04:39:31;99925.00;;;18.20
9119;BMP180;4594;50.994;7.126;2022-11-15T04:41:57;99917.00;;;18.20
9119;BMP180;4594;50.994;7.126;2022-11-15T04:44:22;99918.00;;;18.20
9119;BMP180;4594;50.994;7.126;2022-11-15T04:46:48;99921.00;;;18.20
9119;BMP180;4594;50.994;7.126;2022-11-15T04:49:14;99931.00;;;18.20
9119;BMP180;4594;50.994;7.126;2022-11-15T04:51:39;99929.00;;;18.20
9119;BMP180;4594;50.994;7.126;2022-11-15T04:54:05;99925.00;;;18.20
9119;BMP180;4594;50.994;7.126;2022-11-15T04:56:31;99926.00;;;18.20
9119;BMP180;4594;50.994;7.126;2022-11-15T04:58:56;99918.00;;;18.20
9119;BMP180;4594;50.994;7.126;2022-11-15T05:01:22;99931.00;;;18.20
9119;BMP180;4594;50.994;7.126;2022-11-15T05:03:48;99919.00;;;18.20
9119;BMP180;4594;50.994;7.126;2022-11-15T05:06:32;99936.00;;;18.20
9119;BMP180;4594;50.994;7.126;2022-11-15T05:08:58;99926.00;;;18.20
9119;BMP180;4594;50.994;7.126;2022-11-15T05:11:23;99931.00;;;18.20
9119;BMP180;4594;50.994;7.126;2022-11-15T05:13:49;99931.00;;;18.20
9119;BMP180;4594;50.994;7.126;2022-11-15T05:16:15;99932.00;;;18.20
9119;BMP180;4594;50.994;7.126;2022-11-15T05:18:41;99938.00;;;18.20
9119;BMP180;4594;50.994;7.126;2022-11-15T05:21:12;99938.00;;;18.20
9119;BMP180;4594;50.994;7.126;2022-11-15T05:23:38;99930.00;;;18.20
9119;BMP180;4594;50.994;7.126;2022-11-15T05:26:06;99942.00;;;18.20
9119;BMP180;4594;50.994;7.126;2022-11-15T05:28:33;99939.00;;;18.20
9119;BMP180;4594;50.994;7.126;2022-11-15T05:31:11;99936.00;;;18.20
9119;BMP180;4594;50.994;7.126;2022-11-15T05:33:41;99947.00;;;18.20
9119;BMP180;4594;50.994;7.126;2022-11-15T05:38:41;99930.00;;;18.20
9119;BMP180;4594;50.994;7.126;2022-11-15T05:41:07;99933.00;;;18.20
9119;BMP180;4594;50.994;7.126;2022-11-15T05:43:38;99924.00;;;18.20
9119;BMP180;4594;50.994;7.126;2022-11-15T05:46:04;99934.00;;;18.20
9119;BMP180;4594;50.994;7.126;2022-11-15T05:48:32;99930.00;;;18.20
9119;BMP180;4594;50.994;7.126;2022-11-15T05:50:59;99920.00;;;18.20
9119;BMP180;4594;50.994;7.126;2022-11-15T05:53:26;99935.00;;;18.10
9119;BMP180;4594;50.994;7.126;2022-11-15T05:55:52;99936.00;;;18.10
9119;BMP180;4594;50.994;7.126;2022-11-15T05:58:19;99925.00;;;18.10
9119;BMP180;4594;50.994;7.126;2022-11-15T06:00:46;99932.00;;;18.00
9119;BMP180;4594;50.994;7.126;2022-11-15T06:03:12;99939.00;;;18.00
9119;BMP180;4594;50.994;7.126;2022-11-15T06:05:40;99934.00;;;18.00
9119;BMP180;4594;50.994;7.126;2022-11-15T06:08:06;99931.00;;;17.90
9119;BMP180;4594;50.994;7.126;2022-11-15T06:10:32;99939.00;;;17.80
9119;BMP180;4594;50.994;7.126;2022-11-15T06:13:03;99927.00;;;17.80
9119;BMP180;4594;50.994;7.126;2022-11-15T06:15:29;99941.00;;;17.70
9119;BMP180;4594;50.994;7.126;2022-11-15T06:17:58;99929.00;;;17.70
9119;BMP180;4594;50.994;7.126;2022-11-15T06:20:26;99954.00;;;17.70
9119;BMP180;4594;50.994;7.126;2022-11-15T06:23:00;99956.00;;;17.60
9119;BMP180;4594;50.994;7.126;2022-11-15T06:25:27;99960.00;;;17.60
9119;BMP180;4594;50.994;7.126;2022-11-15T06:27:54;99963.00;;;17.50
9119;BMP180;4594;50.994;7.126;2022-11-15T06:30:22;99968.00;;;17.50
9119;BMP180;4594;50.994;7.126;2022-11-15T06:32:48;99968.00;;;17.50
9119;BMP180;4594;50.994;7.126;2022-11-15T06:35:15;99950.00;;;17.50
9119;BMP180;4594;50.994;7.126;2022-11-15T06:37:41;99961.00;;;17.40
9119;BMP180;4594;50.994;7.126;2022-11-15T06:40:10;99970.00;;;17.40
9119;BMP180;4594;50.994;7.126;2022-11-15T06:42:36;99969.00;;;17.40
9119;BMP180;4594;50.994;7.126;2022-11-15T06:45:02;99975.00;;;17.30
9119;BMP180;4594;50.994;7.126;2022-11-15T06:47:27;99973.00;;;17.30
9119;BMP180;4594;50.994;7.126;2022-11-15T06:49:53;99977.00;;;17.30
9119;BMP180;4594;50.994;7.126;2022-11-15T06:52:19;99978.00;;;17.30
9119;BMP180;4594;50.994;7.126;2022-11-15T06:54:45;99979.00;;;17.20
9119;BMP180;4594;50.994;7.126;2022-11-15T06:57:11;99982.00;;;17.20
9119;BMP180;4594;50.994;7.126;2022-11-15T06:59:37;99984.00;;;17.20
9119;BMP180;4594;50.994;7.126;2022-11-15T07:02:03;99976.00;;;17.10
9119;BMP180;4594;50.994;7.126;2022-11-15T07:04:29;99981.00;;;17.10
9119;BMP180;4594;50.994;7.126;2022-11-15T07:06:54;99979.00;;;17.10
9119;BMP180;4594;50.994;7.126;2022-11-15T07:09:20;99977.00;;;17.00
9119;BMP180;4594;50.994;7.126;2022-11-15T07:11:46;99972.00;;;17.00
9119;BMP180;4594;50.994;7.126;2022-11-15T07:14:12;99981.00;;;17.00
9119;BMP180;4594;50.994;7.126;2022-11-15T07:16:37;99976.00;;;17.00
9119;BMP180;4594;50.994;7.126;2022-11-15T07:19:03;99980.00;;;17.00
9119;BMP180;4594;50.994;7.126;2022-11-15T07:21:29;99998.00;;;17.00
9119;BMP180;4594;50.994;7.126;2022-11-15T07:23:55;99998.00;;;17.00
9119;BMP180;4594;50.994;7.126;2022-11-15T07:26:21;100004.00;;;17.00
9119;BMP180;4594;50.994;7.126;2022-11-15T07:28:46;99993.00;;;17.00
9119;BMP180;4594;50.994;7.126;2022-11-15T07:31:12;99991.00;;;17.00
9119;BMP180;4594;50.994;7.126;2022-11-15T07:33:38;99994.00;;;17.00
9119;BMP180;4594;50.994;7.126;2022-11-15T07:36:06;100006.00;;;17.00
9119;BMP180;4594;50.994;7.126;2022-11-15T07:38:34;99992.00;;;17.10
9119;BMP180;4594;50.994;7.126;2022-11-15T07:41:03;99995.00;;;17.10
9119;BMP180;4594;50.994;7.126;2022-11-15T07:43:29;99998.00;;;17.10
9119;BMP180;4594;50.994;7.126;2022-11-15T07:45:56;100005.00;;;17.20
9119;BMP180;4594;50.994;7.126;2022-11-15T07:48:22;100002.00;;;17.20
9119;BMP180;4594;50.994;7.126;2022-11-15T07:50:48;100008.00;;;17.30
9119;BMP180;4594;50.994;7.126;2022-11-15T07:53:14;99999.00;;;17.40
9119;BMP180;4594;50.994;7.126;2022-11-15T07:55:41;100015.00;;;17.50
9119;BMP180;4594;50.994;7.126;2022-11-15T07:58:10;100000.00;;;17.70
9119;BMP180;4594;50.994;7.126;2022-11-15T08:00:36;100019.00;;;17.80
9119;BMP180;4594;50.994;7.126;2022-11-15T08:03:14;99989.00;;;18.00
9119;BMP180;4594;50.994;7.126;2022-11-15T08:05:42;100018.00;;;18.10
9119;BMP180;4594;50.994;7.126;2022-11-15T08:08:10;100004.00;;;18.20
9119;BMP180;4594;50.994;7.126;2022-11-15T08:10:37;100015.00;;;18.30
9119;BMP180;4594;50.994;7.126;2022-11-15T08:13:11;100016.00;;;18.40
9119;BMP180;4594;50.994;7.126;2022-11-15T08:15:37;100013.00;;;18.50
9119;BMP180;4594;50.994;7.126;2022-11-15T08:18:08;100017.00;;;18.60
9119;BMP180;4594;50.994;7.126;2022-11-15T08:20:35;99996.00;;;18.60
9119;BMP180;4594;50.994;7.126;2022-11-15T08:23:03;100003.00;;;18.70
9119;BMP180;4594;50.994;7.126;2022-11-15T08:25:31;100010.00;;;18.70
9119;BMP180;4594;50.994;7.126;2022-11-15T08:28:00;100009.00;;;18.80
9119;BMP180;4594;50.994;7.126;2022-11-15T08:30:27;100003.00;;;18.80
9119;BMP180;4594;50.994;7.126;2022-11-15T08:32:54;100009.00;;;18.90
9119;BMP180;4594;50.994;7.126;2022-11-15T08:35:21;100019.00;;;18.90
9119;BMP180;4594;50.994;7.126;2022-11-15T08:37:47;100007.00;;;18.90
9119;BMP180;4594;50.994;7.126;2022-11-15T08:40:13;100007.00;;;19.00
9119;BMP180;4594;50.994;7.126;2022-11-15T08:42:40;100004.00;;;19.00
9119;BMP180;4594;50.994;7.126;2022-11-15T08:45:07;100016.00;;;19.00
9119;BMP180;4594;50.994;7.126;2022-11-15T08:47:34;100007.00;;;19.10
9119;BMP180;4594;50.994;7.126;2022-11-15T08:50:00;99989.00;;;19.10
9119;BMP180;4594;50.994;7.126;2022-11-15T08:52:26;99995.00;;;19.20
9119;BMP180;4594;50.994;7.126;2022-11-15T08:54:51;99995.00;;;19.30
9119;BMP180;4594;50.994;7.126;2022-11-15T08:57:17;99991.00;;;19.40
9119;BMP180;4594;50.994;7.126;2022-11-15T08:59:43;99997.00;;;19.50
9119;BMP180;4594;50.994;7.126;2022-11-15T09:02:13;99991.00;;;19.60
9119;BMP180;4594;50.994;7.126;2022-11-15T09:04:41;99982.00;;;19.70
9119;BMP180;4594;50.994;7.126;2022-11-15T09:07:10;99987.00;;;19.80
9119;BMP180;4594;50.994;7.126;2022-11-15T09:09:37;99986.00;;;19.90
9119;BMP180;4594;50.994;7.126;2022-11-15T09:12:04;99973.00;;;20.10
9119;BMP180;4594;50.994;7.126;2022-11-15T09:14:30;99975.00;;;20.30
9119;BMP180;4594;50.994;7.126;2022-11-15T09:16:56;99962.00;;;20.50
9119;BMP180;4594;50.994;7.126;2022-11-15T09:19:22;99966.00;;;20.70
9119;BMP180;4594;50.994;7.126;2022-11-15T09:21:48;99974.00;;;20.80
9119;BMP180;4594;50.994;7.126;2022-11-15T09:24:13;99959.00;;;21.00
9119;BMP180;4594;50.994;7.126;2022-11-15T09:26:40;99968.00;;;21.10
9119;BMP180;4594;50.994;7.126;2022-11-15T09:29:06;99961.00;;;21.20
9119;BMP180;4594;50.994;7.126;2022-11-15T09:31:32;99954.00;;;21.30
9119;BMP180;4594;50.994;7.126;2022-11-15T09:33:58;99958.00;;;21.40
9119;BMP180;4594;50.994;7.126;2022-11-15T09:36:24;99958.00;;;21.60
9119;BMP180;4594;50.994;7.126;2022-11-15T09:38:49;99947.00;;;21.80
9119;BMP180;4594;50.994;7.126;2022-11-15T09:47:35;99961.00;;;22.40
9119;BMP180;4594;50.994;7.126;2022-11-15T09:50:11;99961.00;;;22.50
9119;BMP180;4594;50.994;7.126;2022-11-15T09:52:43;99948.00;;;22.50
9119;BMP180;4594;50.994;7.126;2022-11-15T09:55:12;99943.00;;;22.60
9119;BMP180;4594;50.994;7.126;2022-11-15T09:58:00;99933.00;;;22.70
9119;BMP180;4594;50.994;7.126;2022-11-15T10:00:43;99935.00;;;22.80
9119;BMP180;4594;50.994;7.126;2022-11-15T10:03:37;99919.00;;;22.80
9119;BMP180;4594;50.994;7.126;2022-11-15T10:06:06;99927.00;;;22.80
9119;BMP180;4594;50.994;7.126;2022-11-15T10:11:30;99899.00;;;22.60
9119;BMP180;4594;50.994;7.126;2022-11-15T10:14:05;99907.00;;;22.60
9119;BMP180;4594;50.994;7.126;2022-11-15T10:20:24;99880.00;;;22.50
9119;BMP180;4594;50.994;7.126;2022-11-15T10:22:55;99888.00;;;22.50
9119;BMP180;4594;50.994;7.126;2022-11-15T10:25:25;99873.00;;;22.30
9119;BMP180;4594;50.994;7.126;2022-11-15T10:27:59;99899.00;;;22.20
9119;BMP180;4594;50.994;7.126;2022-11-15T10:30:36;99893.00;;;22.10
9119;BMP180;4594;50.994;7.126;2022-11-15T10:41:17;99879.00;;;21.70
9119;BMP180;4594;50.994;7.126;2022-11-15T10:43:44;99875.00;;;21.50
9119;BMP180;4594;50.994;7.126;2022-11-15T10:46:23;99878.00;;;21.40
9119;BMP180;4594;50.994;7.126;2022-11-15T10:48:50;99866.00;;;21.30
9119;BMP180;4594;50.994;7.126;2022-11-15T10:51:29;99867.00;;;21.20
9119;BMP180;4594;50.994;7.126;2022-11-15T10:53:59;99877.00;;;21.10
9119;BMP180;4594;50.994;7.126;2022-11-15T10:56:26;99872.00;;;21.10
9119;BMP180;4594;50.994;7.126;2022-11-15T10:58:57;99859.00;;;21.00
9119;BMP180;4594;50.994;7.126;2022-11-15T11:01:28;99869.00;;;20.90
9119;BMP180;4594;50.994;7.126;2022-11-15T11:04:07;99872.00;;;20.80
9119;BMP180;4594;50.994;7.126;2022-11-15T11:06:59;99857.00;;;20.70
9119;BMP180;4594;50.994;7.126;2022-11-15T11:09:39;99847.00;;;20.70
9119;BMP180;4594;50.994;7.126;2022-11-15T11:12:11;99843.00;;;20.60
9119;BMP180;4594;50.994;7.126;2022-11-15T11:14:39;99837.00;;;20.60
9119;BMP180;4594;50.994;7.126;2022-11-15T11:18:19;99845.00;;;20.50
9119;BMP180;4594;50.994;7.126;2022-11-15T11:20:26;99840.00;;;20.50
9119;BMP180;4594;50.994;7.126;2022-11-15T11:23:23;99839.00;;;20.40
9119;BMP180;4594;50.994;7.126;2022-11-15T11:28:54;99833.00;;;20.30
9119;BMP180;4594;50.994;7.126;2022-11-15T11:37:24;99828.00;;;20.20
9119;BMP180;4594;50.994;7.126;2022-11-15T11:43:24;99813.00;;;20.10
9119;BMP180;4594;50.994;7.126;2022-11-15T11:49:04;99808.00;;;19.90
9119;BMP180;4594;50.994;7.126;2022-11-15T11:51:42;99805.00;;;19.90
9119;BMP180;4594;50.994;7.126;2022-11-15T11:56:45;99807.00;;;19.90
9119;BMP180;4594;50.994;7.126;2022-11-15T11:59:41;99798.00;;;19.80
9119;BMP180;4594;50.994;7.126;2022-11-15T12:02:39;99795.00;;;19.80
9119;BMP180;4594;50.994;7.126;2022-11-15T12:08:53;99809.00;;;19.80
9119;BMP180;4594;50.994;7.126;2022-11-15T12:11:37;99786.00;;;19.70
9119;BMP180;4594;50.994;7.126;2022-11-15T12:14:24;99783.00;;;19.70
9119;BMP180;4594;50.994;7.126;2022-11-15T12:16:50;99781.00;;;19.70
9119;BMP180;4594;50.994;7.126;2022-11-15T12:19:16;99776.00;;;19.80
9119;BMP180;4594;50.994;7.126;2022-11-15T12:27:35;99758.00;;;19.80
9119;BMP180;4594;50.994;7.126;2022-11-15T12:30:14;99753.00;;;19.80
9119;BMP180;4594;50.994;7.126;2022-11-15T12:32:55;99755.00;;;19.80
9119;BMP180;4594;50.994;7.126;2022-11-15T12:35:42;99751.00;;;19.90
9119;BMP180;4594;50.994;7.126;2022-11-15T12:38:12;99747.00;;;19.90
9119;BMP180;4594;50.994;7.126;2022-11-15T12:41:16;99734.00;;;19.90
9119;BMP180;4594;50.994;7.126;2022-11-15T12:43:45;99747.00;;;20.00
9119;BMP180;4594;50.994;7.126;2022-11-15T12:46:23;99736.00;;;20.00
9119;BMP180;4594;50.994;7.126;2022-11-15T12:59:56;99705.00;;;20.20
9119;BMP180;4594;50.994;7.126;2022-11-15T13:02:36;99701.00;;;20.20
9119;BMP180;4594;50.994;7.126;2022-11-15T13:13:04;99677.00;;;20.20
9119;BMP180;4594;50.994;7.126;2022-11-15T13:15:45;99686.00;;;20.20
9119;BMP180;4594;50.994;7.126;2022-11-15T13:18:33;99667.00;;;20.10
9119;BMP180;4594;50.994;7.126;2022-11-15T13:21:01;99667.00;;;20.10
9119;BMP180;4594;50.994;7.126;2022-11-15T13:23:27;99677.00;;;20.10
9119;BMP180;4594;50.994;7.126;2022-11-15T13:26:13;99671.00;;;20.00
9119;BMP180;4594;50.994;7.126;2022-11-15T13:28:48;99673.00;;;20.10
9119;BMP180;4594;50.994;7.126;2022-11-15T13:31:24;99672.00;;;20.10
9119;BMP180;4594;50.994;7.126;2022-11-15T13:33:52;99664.00;;;20.10
9119;BMP180;4594;50.994;7.126;2022-11-15T13:36:29;99658.00;;;20.00
9119;BMP180;4594;50.994;7.126;2022-11-15T13:39:12;99646.00;;;20.00
9119;BMP180;4594;50.994;7.126;2022-11-15T13:41:48;99641.00;;;20.00
9119;BMP180;4594;50.994;7.126;2022-11-15T13:44:30;99646.00;;;20.00
9119;BMP180;4594;50.994;7.126;2022-11-15T13:47:14;99641.00;;;20.00
9119;BMP180;4594;50.994;7.126;2022-11-15T13:49:41;99644.00;;;20.00
9119;BMP180;4594;50.994;7.126;2022-11-15T13:52:12;99629.00;;;20.00
9119;BMP180;4594;50.994;7.126;2022-11-15T13:54:45;99625.00;;;20.00
9119;BMP180;4594;50.994;7.126;2022-11-15T13:57:41;99610.00;;;20.00
9119;BMP180;4594;50.994;7.126;2022-11-15T14:03:17;99617.00;;;20.00
9119;BMP180;4594;50.994;7.126;2022-11-15T14:06:01;99593.00;;;20.00
9119;BMP180;4594;50.994;7.126;2022-11-15T14:08:28;99601.00;;;19.90
9119;BMP180;4594;50.994;7.126;2022-11-15T14:11:19;99592.00;;;19.90
9119;BMP180;4594;50.994;7.126;2022-11-15T14:17:18;99591.00;;;19.90
9119;BMP180;4594;50.994;7.126;2022-11-15T14:19:44;99584.00;;;19.90
9119;BMP180;4594;50.994;7.126;2022-11-15T14:25:12;99575.00;;;19.80
9119;BMP180;4594;50.994;7.126;2022-11-15T14:27:39;99577.00;;;19.80
9119;BMP180;4594;50.994;7.126;2022-11-15T14:30:07;99579.00;;;19.80
9119;BMP180;4594;50.994;7.126;2022-11-15T14:32:50;99580.00;;;19.80
9119;BMP180;4594;50.994;7.126;2022-11-15T14:35:20;99568.00;;;19.70
9119;BMP180;4594;50.994;7.126;2022-11-15T14:37:47;99565.00;;;19.70
9119;BMP180;4594;50.994;7.126;2022-11-15T14:40:17;99557.00;;;19.70
9119;BMP180;4594;50.994;7.126;2022-11-15T14:42:49;99542.00;;;19.70
9119;BMP180;4594;50.994;7.126;2022-11-15T14:45:18;99524.00;;;19.70
9119;BMP180;4594;50.994;7.126;2022-11-15T14:47:45;99539.00;;;19.70
9119;BMP180;4594;50.994;7.126;2022-11-15T14:50:17;99537.00;;;19.70
9119;BMP180;4594;50.994;7.126;2022-11-15T14:52:44;99532.00;;;19.60
9119;BMP180;4594;50.994;7.126;2022-11-15T14:55:29;99536.00;;;19.60
9119;BMP180;4594;50.994;7.126;2022-11-15T14:58:00;99528.00;;;19.60
9119;BMP180;4594;50.994;7.126;2022-11-15T15:00:32;99509.00;;;19.60
9119;BMP180;4594;50.994;7.126;2022-11-15T15:02:58;99518.00;;;19.60
9119;BMP180;4594;50.994;7.126;2022-11-15T15:05:40;99511.00;;;19.60
9119;BMP180;4594;50.994;7.126;2022-11-15T15:08:07;99509.00;;;19.60
9119;BMP180;4594;50.994;7.126;2022-11-15T15:10:42;99523.00;;;19.50
9119;BMP180;4594;50.994;7.126;2022-11-15T15:13:20;99501.00;;;19.50
9119;BMP180;4594;50.994;7.126;2022-11-15T15:15:47;99500.00;;;19.50
9119;BMP180;4594;50.994;7.126;2022-11-15T15:18:13;99494.00;;;19.40
9119;BMP180;4594;50.994;7.126;2022-11-15T15:20:40;99491.00;;;19.40
9119;BMP180;4594;50.994;7.126;2022-11-15T15:23:17;99475.00;;;19.40
9119;BMP180;4594;50.994;7.126;2022-11-15T15:25:43;99481.00;;;19.40
9119;BMP180;4594;50.994;7.126;2022-11-15T15:28:11;99481.00;;;19.30
9119;BMP180;4594;50.994;7.126;2022-11-15T15:30:37;99481.00;;;19.30
9119;BMP180;4594;50.994;7.126;2022-11-15T15:33:02;99476.00;;;19.30
9119;BMP180;4594;50.994;7.126;2022-11-15T15:35:32;99462.00;;;19.30
9119;BMP180;4594;50.994;7.126;2022-11-15T15:37:59;99471.00;;;19.20
9119;BMP180;4594;50.994;7.126;2022-11-15T15:40:28;99454.00;;;19.20
9119;BMP180;4594;50.994;7.126;2022-11-15T15:42:54;99456.00;;;19.20
9119;BMP180;4594;50.994;7.126;2022-11-15T15:45:20;99450.00;;;19.10
9119;BMP180;4594;50.994;7.126;2022-11-15T15:47:47;99459.00;;;19.10
9119;BMP180;4594;50.994;7.126;2022-11-15T15:52:48;99463.00;;;19.10
9119;BMP180;4594;50.994;7.126;2022-11-15T15:55:14;99453.00;;;19.10
9119;BMP180;4594;50.994;7.126;2022-11-15T15:57:40;99443.00;;;19.00
9119;BMP180;4594;50.994;7.126;2022-11-15T16:00:06;99445.00;;;19.00
9119;BMP180;4594;50.994;7.126;2022-11-15T16:02:32;99445.00;;;19.00
9119;BMP180;4594;50.994;7.126;2022-11-15T16:04:58;99447.00;;;19.00
9119;BMP180;4594;50.994;7.126;2022-11-15T16:07:23;99433.00;;;19.00
9119;BMP180;4594;50.994;7.126;2022-11-15T16:09:50;99434.00;;;19.00
9119;BMP180;4594;50.994;7.126;2022-11-15T16:12:33;99435.00;;;19.00
9119;BMP180;4594;50.994;7.126;2022-11-15T16:14:59;99446.00;;;19.00
9119;BMP180;4594;50.994;7.126;2022-11-15T16:17:31;99442.00;;;19.00
9119;BMP180;4594;50.994;7.126;2022-11-15T16:19:57;99437.00;;;19.00
9119;BMP180;4594;50.994;7.126;2022-11-15T16:22:23;99429.00;;;19.00
9119;BMP180;4594;50.994;7.126;2022-11-15T16:24:49;99433.00;;;19.00
9119;BMP180;4594;50.994;7.126;2022-11-15T16:27:17;99405.00;;;19.00
9119;BMP180;4594;50.994;7.126;2022-11-15T16:29:43;99413.00;;;19.00
9119;BMP180;4594;50.994;7.126;2022-11-15T16:32:10;99433.00;;;19.00
9119;BMP180;4594;50.994;7.126;2022-11-15T16:34:36;99432.00;;;19.00
9119;BMP180;4594;50.994;7.126;2022-11-15T16:37:01;99427.00;;;19.00
9119;BMP180;4594;50.994;7.126;2022-11-15T16:39:27;99434.00;;;19.00
9119;BMP180;4594;50.994;7.126;2022-11-15T16:41:57;99410.00;;;19.00
9119;BMP180;4594;50.994;7.126;2022-11-15T16:44:22;99416.00;;;19.00
9119;BMP180;4594;50.994;7.126;2022-11-15T16:46:49;99406.00;;;19.00
9119;BMP180;4594;50.994;7.126;2022-11-15T16:49:20;99410.00;;;19.00